Time;durP1;ratioP1;P1;durP2;ratioP2;P2;SDS_P1;SDS_P2;PMS_P1;PMS_P2;Temp;Humidity;BMP_temperature;BMP_pressure;BME280_temperature;BME280_humidity;BME280_pressure;Samples;Min_cycle;Max_cycle;Signal;HPM_P1;HPM_P2
2022/08/13 00:00:37;;;;;;;;;;;;;;;28.85;nan;100399.50;5051475;28;2228;-43
2022/08/13 00:03:13;;;;;;;;;;;;;;;28.89;nan;100400.81;5068247;28;1279;-43
2022/08/13 00:05:44;;;;;;;;;;;;;;;28.89;nan;100396.31;5071736;28;691;-43
2022/08/13 00:08:10;;;;;;;;;;;;;;;29.09;nan;100391.53;5072373;28;1181;-44
2022/08/13 00:10:37;;;;;;;;;;;;;;;29.09;nan;100396.91;5072180;28;823;-44
2022/08/13 00:13:04;;;;;;;;;;;;;;;29.04;nan;100389.34;5071381;28;1212;-44
2022/08/13 00:15:31;;;;;;;;;;;;;;;28.95;nan;100389.47;5072465;28;934;-44
2022/08/13 00:18:00;;;;;;;;;;;;;;;28.90;nan;100386.44;5072165;28;1898;-43
2022/08/13 00:20:38;;;;;;;;;;;;;;;28.86;nan;100379.72;5070840;28;893;-43
2022/08/13 00:23:07;;;;;;;;;;;;;;;28.81;nan;100374.00;5070188;28;1370;-43
2022/08/13 00:25:46;;;;;;;;;;;;;;;28.80;nan;100373.16;5070163;28;826;-44
2022/08/13 00:28:16;;;;;;;;;;;;;;;28.72;nan;100373.97;5070381;28;1221;-43
2022/08/13 00:30:43;;;;;;;;;;;;;;;28.71;nan;100372.28;5069981;28;832;-43
2022/08/13 00:33:15;;;;;;;;;;;;;;;28.59;nan;100367.31;5073736;28;1389;-43
2022/08/13 00:35:44;;;;;;;;;;;;;;;28.65;nan;100369.41;5075142;28;1516;-36
2022/08/13 00:38:15;;;;;;;;;;;;;;;28.56;nan;100370.31;5075645;28;1906;-44
2022/08/13 00:40:45;;;;;;;;;;;;;;;28.65;nan;100367.56;5074462;28;948;-43
2022/08/13 00:43:22;;;;;;;;;;;;;;;28.62;nan;100357.13;5073376;28;1208;-44
2022/08/13 00:45:48;;;;;;;;;;;;;;;28.57;nan;100363.97;5073561;28;744;-43
2022/08/13 00:51:01;;;;;;;;;;;;;;;28.67;nan;100343.28;5072879;28;890;-43
2022/08/13 00:53:30;;;;;;;;;;;;;;;28.56;nan;100352.41;5073243;28;1229;-45
2022/08/13 00:56:11;;;;;;;;;;;;;;;28.67;nan;100348.63;5074535;28;1962;-44
2022/08/13 00:58:38;;;;;;;;;;;;;;;28.77;nan;100335.94;5074068;28;1198;-43
2022/08/13 01:01:05;;;;;;;;;;;;;;;28.73;nan;100337.25;5075271;28;813;-44
2022/08/13 01:03:34;;;;;;;;;;;;;;;28.60;nan;100327.00;5075231;28;1258;-44
2022/08/13 01:06:22;;;;;;;;;;;;;;;28.67;nan;100320.00;5075171;28;2102;-44
2022/08/13 01:08:53;;;;;;;;;;;;;;;28.72;nan;100320.38;5075117;28;1202;-44
2022/08/13 01:11:21;;;;;;;;;;;;;;;28.75;nan;100324.56;5074755;28;777;-43
2022/08/13 01:13:48;;;;;;;;;;;;;;;28.71;nan;100313.31;5074798;28;1287;-47
2022/08/13 01:16:15;;;;;;;;;;;;;;;28.74;nan;100309.47;5074850;28;1910;-43
2022/08/13 01:18:51;;;;;;;;;;;;;;;28.82;nan;100308.69;5074739;28;1167;-44
2022/08/13 01:21:20;;;;;;;;;;;;;;;28.74;nan;100309.47;5074766;28;706;-43
2022/08/13 01:23:48;;;;;;;;;;;;;;;28.77;nan;100302.94;5074872;28;1235;-43
2022/08/13 01:26:30;;;;;;;;;;;;;;;28.76;nan;100303.97;5074735;28;949;-44
2022/08/13 01:28:57;;;;;;;;;;;;;;;28.80;nan;100297.25;5074745;28;1267;-43
2022/08/13 01:31:26;;;;;;;;;;;;;;;28.81;nan;100294.44;5074598;28;946;-43
2022/08/13 01:33:55;;;;;;;;;;;;;;;28.78;nan;100293.91;5074403;28;1340;-39
2022/08/13 01:36:23;;;;;;;;;;;;;;;28.78;nan;100292.06;5073665;28;1965;-43
2022/08/13 01:39:10;;;;;;;;;;;;;;;28.82;nan;100303.31;5074444;28;1196;-43
2022/08/13 01:41:43;;;;;;;;;;;;;;;28.76;nan;100320.06;5074341;28;703;-43
2022/08/13 01:44:21;;;;;;;;;;;;;;;28.70;nan;100325.03;5073526;28;1096;-42
2022/08/13 01:52:31;;;;;;;;;;;;;;;28.46;nan;100314.19;5074174;28;1220;-43
2022/08/13 01:55:01;;;;;;;;;;;;;;;28.45;nan;100317.03;5074417;28;905;-43
2022/08/13 01:57:28;;;;;;;;;;;;;;;28.46;nan;100308.81;5073761;28;1910;-43
2022/08/13 02:00:08;;;;;;;;;;;;;;;28.41;nan;100310.31;5074324;28;1221;-43
2022/08/13 02:02:35;;;;;;;;;;;;;;;28.50;nan;100309.34;5074036;28;1224;-42
2022/08/13 02:05:12;;;;;;;;;;;;;;;28.43;nan;100310.97;5072717;28;1160;-43
2022/08/13 02:08:00;;;;;;;;;;;;;;;28.52;nan;100308.19;5074322;28;2300;-45
2022/08/13 02:10:31;;;;;;;;;;;;;;;28.53;nan;100309.03;5074061;28;841;-43
2022/08/13 02:12:58;;;;;;;;;;;;;;;28.53;nan;100311.72;5073550;28;1196;-44
2022/08/13 02:15:24;;;;;;;;;;;;;;;28.52;nan;100316.22;5073465;28;851;-44
2022/08/13 02:18:12;;;;;;;;;;;;;;;28.43;nan;100308.31;5072432;28;1902;-43
2022/08/13 02:20:40;;;;;;;;;;;;;;;28.39;nan;100312.31;5073530;28;867;-44
2022/08/13 02:23:06;;;;;;;;;;;;;;;28.42;nan;100315.53;5073377;28;1192;-43
2022/08/13 02:25:34;;;;;;;;;;;;;;;28.50;nan;100320.91;5073634;28;1613;-44
2022/08/13 02:28:01;;;;;;;;;;;;;;;28.43;nan;100310.97;5073278;28;1279;-42
2022/08/13 02:30:29;;;;;;;;;;;;;;;28.28;nan;100310.75;5073750;28;950;-42
2022/08/13 02:33:00;;;;;;;;;;;;;;;28.05;nan;100314.97;5073147;28;1206;-42
2022/08/13 02:35:27;;;;;;;;;;;;;;;28.18;nan;100310.84;5073295;28;1600;-43
2022/08/13 02:38:12;;;;;;;;;;;;;;;27.89;nan;100321.00;5072438;28;1906;-43
2022/08/13 02:43:28;;;;;;;;;;;;;;;27.82;nan;100313.75;5073489;28;1447;-44
2022/08/13 02:45:56;;;;;;;;;;;;;;;28.06;nan;100306.75;5073158;28;741;-43
2022/08/13 02:48:24;;;;;;;;;;;;;;;28.09;nan;100306.44;5072889;28;1244;-44
2022/08/13 02:50:51;;;;;;;;;;;;;;;28.10;nan;100297.44;5073173;28;913;-43
2022/08/13 02:53:19;;;;;;;;;;;;;;;27.93;nan;100295.63;5073179;28;1221;-44
2022/08/13 02:55:52;;;;;;;;;;;;;;;27.77;nan;100287.47;5072792;28;703;-44
2022/08/13 02:58:19;;;;;;;;;;;;;;;27.87;nan;100296.25;5073040;28;1906;-44
2022/08/13 03:00:48;;;;;;;;;;;;;;;27.84;nan;100295.72;5073349;28;897;-44
2022/08/13 03:03:18;;;;;;;;;;;;;;;27.94;nan;100301.78;5072964;28;1225;-44
2022/08/13 03:05:45;;;;;;;;;;;;;;;27.87;nan;100298.94;5073154;28;749;-44
2022/08/13 03:08:27;;;;;;;;;;;;;;;28.04;nan;100294.50;5073464;28;1343;-44
2022/08/13 03:11:05;;;;;;;;;;;;;;;28.04;nan;100297.19;5073118;28;675;-44
2022/08/13 03:13:36;;;;;;;;;;;;;;;27.54;nan;100297.81;5072938;28;1201;-44
2022/08/13 03:16:12;;;;;;;;;;;;;;;27.59;nan;100292.03;5073004;28;873;-44
2022/08/13 03:18:39;;;;;;;;;;;;;;;27.93;nan;100290.28;5072618;28;1906;-43
2022/08/13 03:21:20;;;;;;;;;;;;;;;27.81;nan;100294.22;5072951;28;1464;-44
2022/08/13 03:24:08;;;;;;;;;;;;;;;27.55;nan;100299.50;5073189;28;2122;-44
2022/08/13 03:26:35;;;;;;;;;;;;;;;27.82;nan;100292.34;5072867;28;873;-44
2022/08/13 03:29:03;;;;;;;;;;;;;;;27.63;nan;100290.72;5072635;28;1303;-45
2022/08/13 03:31:29;;;;;;;;;;;;;;;27.50;nan;100284.94;5071687;28;760;-45
2022/08/13 03:33:58;;;;;;;;;;;;;;;27.71;nan;100279.22;5072939;28;1360;-44
2022/08/13 03:36:33;;;;;;;;;;;;;;;27.56;nan;100277.13;5072530;28;639;-44
2022/08/13 03:39:00;;;;;;;;;;;;;;;27.75;nan;100285.97;5072631;28;1917;-45
2022/08/13 03:41:27;;;;;;;;;;;;;;;27.87;nan;100292.72;5071982;28;1019;-43
2022/08/13 03:43:53;;;;;;;;;;;;;;;27.61;nan;100287.34;5072703;28;1197;-43
2022/08/13 03:46:22;;;;;;;;;;;;;;;27.66;nan;100285.88;5072431;28;737;-44
2022/08/13 03:48:53;;;;;;;;;;;;;;;27.60;nan;100285.69;5072540;28;1283;-43
2022/08/13 03:51:23;;;;;;;;;;;;;;;27.85;nan;100279.50;5072703;28;889;-43
2022/08/13 03:54:01;;;;;;;;;;;;;;;27.86;nan;100283.00;5072617;28;1315;-44
2022/08/13 03:56:28;;;;;;;;;;;;;;;27.88;nan;100286.34;5071709;28;932;-43
2022/08/13 03:58:55;;;;;;;;;;;;;;;27.94;nan;100296.44;5072373;28;1913;-45
2022/08/13 04:01:22;;;;;;;;;;;;;;;27.90;nan;100305.81;5072434;28;878;-44
2022/08/13 04:03:51;;;;;;;;;;;;;;;27.86;nan;100310.63;5072301;28;1189;-43
2022/08/13 04:06:20;;;;;;;;;;;;;;;27.79;nan;100314.91;5073084;28;961;-44
2022/08/13 04:08:50;;;;;;;;;;;;;;;27.64;nan;100303.94;5076292;28;1287;-43
2022/08/13 04:11:19;;;;;;;;;;;;;;;27.60;nan;100302.56;5075872;28;804;-43
2022/08/13 04:13:47;;;;;;;;;;;;;;;27.55;nan;100291.47;5076205;28;1169;-45
2022/08/13 04:16:32;;;;;;;;;;;;;;;27.73;nan;100282.56;5075812;28;664;-45
2022/08/13 04:19:02;;;;;;;;;;;;;;;27.52;nan;100280.25;5075950;28;1979;-43
2022/08/13 04:21:31;;;;;;;;;;;;;;;27.82;nan;100276.28;5076066;28;866;-43
2022/08/13 04:24:02;;;;;;;;;;;;;;;27.41;nan;100267.94;5076202;28;1276;-44
2022/08/13 04:26:29;;;;;;;;;;;;;;;27.39;nan;100267.22;5075529;28;901;-44
2022/08/13 04:28:59;;;;;;;;;;;;;;;27.37;nan;100258.53;5075737;28;1227;-45
2022/08/13 04:31:26;;;;;;;;;;;;;;;27.59;nan;100260.75;5075890;28;749;-44
2022/08/13 04:34:11;;;;;;;;;;;;;;;27.52;nan;100270.41;5075648;28;1500;-44
2022/08/13 04:36:57;;;;;;;;;;;;;;;27.58;nan;100275.13;5075636;28;1291;-42
2022/08/13 04:39:24;;;;;;;;;;;;;;;27.64;nan;100273.66;5075430;28;1973;-44
2022/08/13 04:41:53;;;;;;;;;;;;;;;27.59;nan;100274.13;5073799;28;1287;-43
2022/08/13 04:44:20;;;;;;;;;;;;;;;27.82;nan;100271.78;5073716;28;1054;-45
2022/08/13 04:46:48;;;;;;;;;;;;;;;27.92;nan;100266.31;5073378;28;699;-44
2022/08/13 04:49:15;;;;;;;;;;;;;;;27.82;nan;100261.06;5074009;28;1204;-43
2022/08/13 04:51:41;;;;;;;;;;;;;;;27.76;nan;100251.00;5073460;28;866;-44
2022/08/13 04:54:08;;;;;;;;;;;;;;;27.81;nan;100242.50;5074244;28;1286;-44
2022/08/13 04:56:35;;;;;;;;;;;;;;;27.80;nan;100241.66;5074487;28;705;-44
2022/08/13 04:59:03;;;;;;;;;;;;;;;27.75;nan;100244.00;5075108;28;1976;-44
2022/08/13 05:01:30;;;;;;;;;;;;;;;27.50;nan;100242.97;5071970;28;1606;-44
2022/08/13 05:04:17;;;;;;;;;;;;;;;27.55;nan;100250.50;5071514;28;2378;-43
2022/08/13 05:06:51;;;;;;;;;;;;;;;27.60;nan;100249.03;5075088;28;659;-43
2022/08/13 05:09:19;;;;;;;;;;;;;;;27.66;nan;100251.09;5075256;28;1370;-44
2022/08/13 05:11:49;;;;;;;;;;;;;;;27.68;nan;100254.47;5075227;28;953;-44
2022/08/13 05:14:30;;;;;;;;;;;;;;;27.60;nan;100253.59;5074962;28;1107;-44
2022/08/13 05:16:58;;;;;;;;;;;;;;;27.82;nan;100252.19;5074639;28;1205;-44
2022/08/13 05:19:25;;;;;;;;;;;;;;;27.80;nan;100267.59;5074982;28;1971;-43
2022/08/13 05:21:52;;;;;;;;;;;;;;;27.68;nan;100275.88;5061531;28;772;-44
2022/08/13 05:24:25;;;;;;;;;;;;;;;27.63;nan;100278.16;5056135;28;1079;-44
2022/08/13 05:27:13;;;;;;;;;;;;;;;27.54;nan;100279.09;5074793;28;2178;-44
2022/08/13 05:29:41;;;;;;;;;;;;;;;27.49;nan;100273.38;5075048;28;902;-44
2022/08/13 05:32:16;;;;;;;;;;;;;;;27.32;nan;100276.03;5065829;28;1249;-43
2022/08/13 05:34:43;;;;;;;;;;;;;;;27.23;nan;100275.13;5054347;28;1163;-43
2022/08/13 05:37:16;;;;;;;;;;;;;;;27.66;nan;100288.56;5054070;28;1205;-43
2022/08/13 05:40:03;;;;;;;;;;;;;;;27.62;nan;100289.03;5054748;28;2012;-44
2022/08/13 05:42:33;;;;;;;;;;;;;;;27.56;nan;100287.81;5054409;28;1224;-43
2022/08/13 05:45:00;;;;;;;;;;;;;;;27.60;nan;100289.19;5053486;28;1075;-44
2022/08/13 05:47:27;;;;;;;;;;;;;;;27.65;nan;100275.34;5053778;28;1189;-42
2022/08/13 05:49:54;;;;;;;;;;;;;;;27.65;nan;100268.16;5054456;28;1033;-44
2022/08/13 05:52:25;;;;;;;;;;;;;;;27.49;nan;100278.72;5053844;28;1221;-44
2022/08/13 05:55:11;;;;;;;;;;;;;;;27.54;nan;100284.44;5053974;28;962;-42
2022/08/13 05:57:57;;;;;;;;;;;;;;;27.59;nan;100290.19;5053978;28;1906;-43
2022/08/13 06:03:25;;;;;;;;;;;;;;;27.57;nan;100277.97;5054014;28;1264;-44
2022/08/13 06:06:03;;;;;;;;;;;;;;;27.80;nan;100272.94;5053774;28;1223;-43
2022/08/13 06:08:39;;;;;;;;;;;;;;;27.73;nan;100274.53;5053634;28;1244;-44
2022/08/13 06:11:11;;;;;;;;;;;;;;;27.68;nan;100273.19;5053608;28;743;-44
2022/08/13 06:13:38;;;;;;;;;;;;;;;27.64;nan;100279.00;5053676;28;1209;-44
2022/08/13 06:16:28;;;;;;;;;;;;;;;27.66;nan;100275.16;5054168;28;3166;-44
2022/08/13 06:19:15;;;;;;;;;;;;;;;27.89;nan;100288.06;5053584;28;2077;-44
2022/08/13 06:21:42;;;;;;;;;;;;;;;28.01;nan;100295.66;5053595;28;772;-44
2022/08/13 06:24:24;;;;;;;;;;;;;;;28.13;nan;100301.63;5053715;28;1126;-43
2022/08/13 06:26:51;;;;;;;;;;;;;;;28.13;nan;100301.63;5053540;28;741;-44
2022/08/13 06:29:18;;;;;;;;;;;;;;;28.18;nan;100301.97;5053136;28;1300;-44
2022/08/13 06:31:47;;;;;;;;;;;;;;;28.25;nan;100297.66;5053634;28;891;-44
2022/08/13 06:34:15;;;;;;;;;;;;;;;28.30;nan;100297.22;5053256;28;1547;-45
2022/08/13 06:37:10;;;;;;;;;;;;;;;28.07;nan;100292.38;5053026;28;1272;-42
2022/08/13 06:39:37;;;;;;;;;;;;;;;28.25;nan;100292.31;5053346;28;1975;-43
2022/08/13 06:42:04;;;;;;;;;;;;;;;28.16;nan;100291.44;5052679;28;1218;-45
2022/08/13 06:44:32;;;;;;;;;;;;;;;28.13;nan;100290.91;5052566;28;1166;-44
2022/08/13 06:47:04;;;;;;;;;;;;;;;28.32;nan;100293.38;5053166;28;1165;-44
2022/08/13 06:49:32;;;;;;;;;;;;;;;28.44;nan;100300.13;5053394;28;1036;-45
2022/08/13 06:52:18;;;;;;;;;;;;;;;28.31;nan;100296.19;5052895;28;2126;-43
2022/08/13 06:54:45;;;;;;;;;;;;;;;28.42;nan;100294.09;5052867;28;1150;-44
2022/08/13 06:57:17;;;;;;;;;;;;;;;28.34;nan;100293.19;5051391;28;1363;-45
2022/08/13 06:59:48;;;;;;;;;;;;;;;28.35;nan;100287.69;5052912;28;1976;-45
2022/08/13 07:02:35;;;;;;;;;;;;;;;28.39;nan;100283.66;5052982;28;2242;-44
2022/08/13 07:05:04;;;;;;;;;;;;;;;28.47;nan;100283.72;5053238;28;1164;-43
2022/08/13 07:07:33;;;;;;;;;;;;;;;28.60;nan;100286.81;5053008;28;1244;-44
2022/08/13 07:10:01;;;;;;;;;;;;;;;28.63;nan;100273.06;5052568;28;974;-43
2022/08/13 07:12:31;;;;;;;;;;;;;;;28.88;nan;100275.84;5052306;28;1208;-44
2022/08/13 07:14:57;;;;;;;;;;;;;;;29.01;nan;100276.19;5053283;28;1054;-43
2022/08/13 07:17:28;;;;;;;;;;;;;;;29.09;nan;100273.56;5052566;28;1294;-44
2022/08/13 07:19:57;;;;;;;;;;;;;;;28.96;nan;100278.53;5052794;28;1981;-44
2022/08/13 07:22:33;;;;;;;;;;;;;;;29.03;nan;100284.94;5052963;28;1233;-42
2022/08/13 07:25:21;;;;;;;;;;;;;;;29.14;nan;100293.50;5052988;28;1984;-45
2022/08/13 07:27:49;;;;;;;;;;;;;;;29.28;nan;100289.34;5052249;28;1304;-43
2022/08/13 07:30:19;;;;;;;;;;;;;;;29.35;nan;100286.84;5052754;28;978;-44
2022/08/13 07:32:47;;;;;;;;;;;;;;;29.23;nan;100284.50;5052595;28;1316;-42
2022/08/13 07:35:15;;;;;;;;;;;;;;;29.35;nan;100287.69;5052354;28;1758;-44
2022/08/13 07:37:45;;;;;;;;;;;;;;;29.15;nan;100297.03;5051388;28;1276;-43
2022/08/13 07:40:19;;;;;;;;;;;;;;;29.24;nan;100294.19;5053005;28;1158;-44
2022/08/13 07:42:48;;;;;;;;;;;;;;;29.23;nan;100302.38;5055309;28;1236;-44
2022/08/13 07:45:21;;;;;;;;;;;;;;;29.34;nan;100299.41;5056720;28;1179;-43
2022/08/13 07:48:08;;;;;;;;;;;;;;;29.57;nan;100304.97;5056454;28;1986;-44
2022/08/13 07:50:53;;;;;;;;;;;;;;;29.84;nan;100311.84;5055701;28;744;-43
2022/08/13 07:53:29;;;;;;;;;;;;;;;29.96;nan;100318.53;5056504;28;1268;-44
2022/08/13 07:56:17;;;;;;;;;;;;;;;30.06;nan;100319.22;5056570;28;2360;-42
2022/08/13 07:58:55;;;;;;;;;;;;;;;30.15;nan;100313.66;5056114;28;2004;-44
2022/08/13 08:01:22;;;;;;;;;;;;;;;30.03;nan;100312.34;5056003;28;734;-44
2022/08/13 08:03:52;;;;;;;;;;;;;;;29.98;nan;100303.09;5056185;28;1280;-44
2022/08/13 08:06:20;;;;;;;;;;;;;;;29.69;nan;100304.47;5055976;28;1074;-43
2022/08/13 08:08:54;;;;;;;;;;;;;;;29.83;nan;100302.94;5056516;28;1347;-43
2022/08/13 08:14:10;;;;;;;;;;;;;;;30.25;nan;100310.75;5056150;28;1378;-43
2022/08/13 08:16:39;;;;;;;;;;;;;;;30.10;nan;100313.31;5055683;28;957;-44
2022/08/13 08:19:06;;;;;;;;;;;;;;;30.06;nan;100319.22;5055572;28;1992;-44
2022/08/13 08:21:56;;;;;;;;;;;;;;;30.44;nan;100323.00;5055871;28;2129;-44
2022/08/13 08:24:48;;;;;;;;;;;;;;;29.86;nan;100325.94;5055967;28;1901;-43
2022/08/13 08:27:19;;;;;;;;;;;;;;;30.45;nan;100321.97;5055528;28;1284;-43
2022/08/13 08:30:06;;;;;;;;;;;;;;;30.14;nan;100337.97;5056536;28;2273;-44
2022/08/13 08:32:39;;;;;;;;;;;;;;;30.64;nan;100335.84;5055387;28;1238;-44
2022/08/13 08:35:07;;;;;;;;;;;;;;;30.77;nan;100333.44;5054390;28;1455;-43
2022/08/13 08:43:22;;;;;;;;;;;;;;;30.11;nan;100357.13;5053908;28;1272;-41
2022/08/13 08:45:52;;;;;;;;;;;;;;;30.61;nan;100360.38;5053031;28;821;-41
2022/08/13 08:48:38;;;;;;;;;;;;;;;30.76;nan;100357.81;5054235;28;1220;-43
2022/08/13 08:51:05;;;;;;;;;;;;;;;30.00;nan;100366.38;5053782;28;825;-43
2022/08/13 08:53:44;;;;;;;;;;;;;;;30.00;nan;100370.91;5053326;28;1345;-40
2022/08/13 08:56:34;;;;;;;;;;;;;;;29.96;nan;100380.31;5054029;28;2126;-40
2022/08/13 08:59:02;;;;;;;;;;;;;;;30.04;nan;100388.34;5053619;28;1989;-42
2022/08/13 09:01:33;;;;;;;;;;;;;;;30.45;nan;100395.38;5053944;28;678;-42
2022/08/13 09:04:20;;;;;;;;;;;;;;;30.33;nan;100399.41;5053622;28;1841;-42
2022/08/13 09:06:52;;;;;;;;;;;;;;;30.00;nan;100408.50;5053688;28;679;-43
2022/08/13 09:09:23;;;;;;;;;;;;;;;30.08;nan;100405.81;5068367;28;1370;-44
2022/08/13 09:11:55;;;;;;;;;;;;;;;30.23;nan;100406.81;5071477;28;1176;-43
2022/08/13 09:14:26;;;;;;;;;;;;;;;30.18;nan;100418.06;5072503;28;1051;-40
2022/08/13 09:16:54;;;;;;;;;;;;;;;30.17;nan;100413.69;5072695;28;710;-40
2022/08/13 09:19:23;;;;;;;;;;;;;;;30.16;nan;100425.44;5072561;28;1975;-43
2022/08/13 09:22:14;;;;;;;;;;;;;;;30.60;nan;100412.47;5071895;28;2088;-42
2022/08/13 09:24:46;;;;;;;;;;;;;;;30.35;nan;100418.88;5072448;28;1046;-43
2022/08/13 09:27:17;;;;;;;;;;;;;;;30.51;nan;100424.25;5072339;28;1299;-43
2022/08/13 09:29:45;;;;;;;;;;;;;;;30.34;nan;100422.56;5072641;28;1063;-43
2022/08/13 09:32:24;;;;;;;;;;;;;;;30.23;nan;100420.22;5071854;28;1280;-43
2022/08/13 09:34:58;;;;;;;;;;;;;;;30.18;nan;100417.22;5028021;28;1268728;-43
2022/08/13 09:37:25;;;;;;;;;;;;;;;30.24;nan;100428.13;5073094;28;1265;-44
2022/08/13 09:39:53;;;;;;;;;;;;;;;30.13;nan;100436.53;5073221;28;1985;-44
2022/08/13 09:42:28;;;;;;;;;;;;;;;30.12;nan;100436.72;5072438;28;1174;-44
2022/08/13 09:44:56;;;;;;;;;;;;;;;30.10;nan;100436.00;5072727;28;1136;-44
2022/08/13 09:47:24;;;;;;;;;;;;;;;30.08;nan;100444.25;5071730;28;1228;-43
2022/08/13 09:50:10;;;;;;;;;;;;;;;30.20;nan;100450.13;5073202;28;2117;-43
2022/08/13 09:52:37;;;;;;;;;;;;;;;30.09;nan;100445.94;5072892;28;1173;-42
2022/08/13 09:55:05;;;;;;;;;;;;;;;30.25;nan;100437.00;5071516;28;1072;-41
2022/08/13 09:57:47;;;;;;;;;;;;;;;30.29;nan;100441.06;5073312;28;1224;-42
2022/08/13 10:00:22;;;;;;;;;;;;;;;30.17;nan;100439.72;5073940;28;1914;-41
2022/08/13 10:02:50;;;;;;;;;;;;;;;30.00;nan;100432.69;5073767;28;1357;-42
2022/08/13 10:05:18;;;;;;;;;;;;;;;29.79;nan;100438.50;5071921;28;1477;-40
2022/08/13 10:07:45;;;;;;;;;;;;;;;30.07;nan;100447.09;5052428;28;1220;-42
2022/08/13 10:10:15;;;;;;;;;;;;;;;30.06;nan;100457.03;5050984;28;1152;-41
2022/08/13 10:12:59;;;;;;;;;;;;;;;29.90;nan;100465.06;5070895;28;1685;-39
2022/08/13 10:15:27;;;;;;;;;;;;;;;29.76;nan;100476.44;5072220;28;734;-42
2022/08/13 10:17:56;;;;;;;;;;;;;;;30.25;nan;100464.72;5072683;28;1181;-43
2022/08/13 10:20:29;;;;;;;;;;;;;;;30.33;nan;100472.81;5072392;28;1910;-42
2022/08/13 10:22:56;;;;;;;;;;;;;;;30.33;nan;100483.53;5072082;28;1215;-42
2022/08/13 10:25:24;;;;;;;;;;;;;;;30.27;nan;100467.25;5072331;28;977;-41
2022/08/13 10:27:55;;;;;;;;;;;;;;;30.52;nan;100468.91;5072286;28;1338;-44
2022/08/13 10:30:26;;;;;;;;;;;;;;;30.64;nan;100470.25;5072468;28;1028;-44
2022/08/13 10:33:14;;;;;;;;;;;;;;;30.69;nan;100475.13;5072064;28;2133;-43
2022/08/13 10:35:41;;;;;;;;;;;;;;;30.55;nan;100475.84;5072033;28;1687;-43
2022/08/13 10:38:13;;;;;;;;;;;;;;;30.60;nan;100477.00;5071993;28;1220;-43
2022/08/13 10:40:40;;;;;;;;;;;;;;;30.65;nan;100473.78;5070950;28;1967;-42
2022/08/13 10:43:07;;;;;;;;;;;;;;;30.31;nan;100465.88;5071706;28;1193;-40
2022/08/13 10:45:45;;;;;;;;;;;;;;;30.40;nan;100459.53;5070674;28;1195;-41
2022/08/13 10:48:13;;;;;;;;;;;;;;;30.39;nan;100457.88;5069497;28;1275;-43
2022/08/13 10:50:41;;;;;;;;;;;;;;;30.57;nan;100445.06;5058333;28;1317;-43
2022/08/13 10:53:55;;;;;;;;;;;;;;;30.62;nan;100448.09;5069189;28;1333;-43
2022/08/13 10:56:08;;;;;;;;;;;;;;;30.69;nan;100448.25;5071668;28;1049;-44
2022/08/13 10:58:35;;;;;;;;;;;;;;;30.73;nan;100446.91;5072025;28;1307;-41
2022/08/13 11:01:12;;;;;;;;;;;;;;;30.70;nan;100460.69;5072225;28;902;-43
2022/08/13 11:03:44;;;;;;;;;;;;;;;30.54;nan;100463.41;5070357;28;1217;-42
2022/08/13 11:06:14;;;;;;;;;;;;;;;30.60;nan;100470.78;5071458;28;714;-42
2022/08/13 11:08:41;;;;;;;;;;;;;;;30.72;nan;100475.63;5071509;28;1295;-42
2022/08/13 11:11:10;;;;;;;;;;;;;;;30.37;nan;100475.97;5069265;28;1306;-42
2022/08/13 11:13:56;;;;;;;;;;;;;;;30.40;nan;100462.22;5068750;28;2333;-44
2022/08/13 11:19:17;;;;;;;;;;;;;;;30.55;nan;100457.81;5065588;28;1995;-46
2022/08/13 11:21:44;;;;;;;;;;;;;;;30.56;nan;100456.00;5067017;28;1235;-44
2022/08/13 11:24:31;;;;;;;;;;;;;;;30.78;nan;100452.59;5062084;28;2101;-41
2022/08/13 11:27:02;;;;;;;;;;;;;;;30.83;nan;100451.03;5066978;28;1391;-41
2022/08/13 11:29:30;;;;;;;;;;;;;;;31.03;nan;100456.06;5060589;28;1253;-38
2022/08/13 11:32:03;;;;;;;;;;;;;;;30.62;nan;100448.09;5069634;28;1394;-40
2022/08/13 11:34:30;;;;;;;;;;;;;;;30.97;nan;100446.00;5072410;28;1757;-40
2022/08/13 11:36:57;;;;;;;;;;;;;;;31.03;nan;100448.84;5072331;28;1244;-45
2022/08/13 11:39:24;;;;;;;;;;;;;;;31.26;nan;100454.28;5072500;28;1993;-42
2022/08/13 11:42:03;;;;;;;;;;;;;;;30.98;nan;100447.66;5072604;28;1375;-41
2022/08/13 11:44:30;;;;;;;;;;;;;;;30.68;nan;100442.03;5071980;28;1104;-40
2022/08/13 11:46:57;;;;;;;;;;;;;;;30.91;nan;100446.66;5072235;28;1385;-45
2022/08/13 11:49:24;;;;;;;;;;;;;;;31.09;nan;100444.59;5072373;28;937;-41
2022/08/13 11:51:50;;;;;;;;;;;;;;;31.11;nan;100445.25;5072250;28;874;-41
2022/08/13 11:54:22;;;;;;;;;;;;;;;31.21;nan;100444.06;5072815;28;1370;-42
2022/08/13 11:56:57;;;;;;;;;;;;;;;31.13;nan;100441.38;5071426;28;1535;-43
2022/08/13 11:59:24;;;;;;;;;;;;;;;30.94;nan;100439.13;5072316;28;1979;-43
2022/08/13 12:02:00;;;;;;;;;;;;;;;31.26;nan;100432.75;5072084;28;1379;-44
2022/08/13 12:04:26;;;;;;;;;;;;;;;30.75;nan;100432.25;5070899;28;1064;-43
2022/08/13 12:06:53;;;;;;;;;;;;;;;31.04;nan;100420.91;5072111;28;716;-43
2022/08/13 12:09:20;;;;;;;;;;;;;;;30.87;nan;100411.22;5071215;28;1052;-43
2022/08/13 12:12:07;;;;;;;;;;;;;;;31.32;nan;100423.97;5070907;28;2179;-45
2022/08/13 12:14:38;;;;;;;;;;;;;;;31.50;nan;100410.25;5071585;28;1111;-44
2022/08/13 12:17:05;;;;;;;;;;;;;;;31.16;nan;100416.81;5070666;28;1240;-45
2022/08/13 12:19:32;;;;;;;;;;;;;;;31.22;nan;100418.81;5071921;28;1910;-40
2022/08/13 12:22:00;;;;;;;;;;;;;;;30.67;nan;100424.19;5071598;28;1239;-46
2022/08/13 12:24:27;;;;;;;;;;;;;;;31.05;nan;100411.84;5072001;28;1116;-43
2022/08/13 12:26:58;;;;;;;;;;;;;;;30.78;nan;100407.72;5071833;28;1398;-43
2022/08/13 12:29:25;;;;;;;;;;;;;;;30.96;nan;100401.28;5075735;28;1044;-44
2022/08/13 12:32:08;;;;;;;;;;;;;;;31.22;nan;100401.84;5075656;28;1300;-44
2022/08/13 12:34:39;;;;;;;;;;;;;;;31.29;nan;100403.63;5075405;28;1573;-44
2022/08/13 12:37:06;;;;;;;;;;;;;;;31.31;nan;100406.16;5075598;28;1478;-44
2022/08/13 12:39:52;;;;;;;;;;;;;;;31.26;nan;100393.22;5075672;28;1914;-43
2022/08/13 12:42:20;;;;;;;;;;;;;;;31.01;nan;100393.56;5074989;28;1263;-44
2022/08/13 12:44:47;;;;;;;;;;;;;;;31.30;nan;100377.56;5075059;28;1126;-40
2022/08/13 12:47:34;;;;;;;;;;;;;;;31.33;nan;100393.38;5075277;28;2636;-43
2022/08/13 12:50:02;;;;;;;;;;;;;;;30.80;nan;100386.00;5075541;28;1261;-40
2022/08/13 12:52:32;;;;;;;;;;;;;;;30.99;nan;100382.09;5074934;28;1391;-45
2022/08/13 12:55:00;;;;;;;;;;;;;;;31.06;nan;100391.16;5075179;28;918;-44
2022/08/13 12:57:37;;;;;;;;;;;;;;;30.56;nan;100391.47;5074637;28;1264;-45
2022/08/13 13:00:25;;;;;;;;;;;;;;;30.77;nan;100394.44;5071058;28;2084;-41
2022/08/13 13:02:58;;;;;;;;;;;;;;;30.88;nan;100386.81;5074958;28;1359;-42
2022/08/13 13:05:25;;;;;;;;;;;;;;;30.85;nan;100392.53;5074740;28;1093;-44
2022/08/13 13:07:52;;;;;;;;;;;;;;;31.25;nan;100396.91;5074967;28;1224;-41
2022/08/13 13:10:37;;;;;;;;;;;;;;;31.32;nan;100405.13;5074746;28;710;-44
2022/08/13 13:13:08;;;;;;;;;;;;;;;31.39;nan;100400.72;5074512;28;1257;-42
2022/08/13 13:15:40;;;;;;;;;;;;;;;31.10;nan;100392.50;5067271;28;863;-45
2022/08/13 13:18:28;;;;;;;;;;;;;;;30.72;nan;100389.59;5074932;28;2168;-42
2022/08/13 13:21:15;;;;;;;;;;;;;;;31.21;nan;100386.72;5074944;28;2085;-42
2022/08/13 13:23:42;;;;;;;;;;;;;;;31.19;nan;100392.25;5074636;28;1322;-46
2022/08/13 13:26:26;;;;;;;;;;;;;;;31.51;nan;100393.94;5074397;28;747;-40
2022/08/13 13:28:54;;;;;;;;;;;;;;;31.67;nan;100393.00;5074543;28;1193;-42
2022/08/13 13:31:21;;;;;;;;;;;;;;;31.34;nan;100389.66;5074074;28;840;-43
2022/08/13 13:33:52;;;;;;;;;;;;;;;31.14;nan;100383.88;5074416;28;1606;-42
2022/08/13 13:36:21;;;;;;;;;;;;;;;31.00;nan;100384.63;5073716;28;700;-42
2022/08/13 13:38:52;;;;;;;;;;;;;;;31.07;nan;100376.72;5073914;28;1352;-41
2022/08/13 13:41:21;;;;;;;;;;;;;;;31.03;nan;100375.38;5074381;28;1984;-41
2022/08/13 13:43:52;;;;;;;;;;;;;;;31.08;nan;100376.50;5074279;28;1276;-41
2022/08/13 13:46:20;;;;;;;;;;;;;;;31.29;nan;100375.88;5074185;28;811;-42
2022/08/13 13:48:46;;;;;;;;;;;;;;;30.89;nan;100384.97;5073927;28;1338;-42
2022/08/13 13:51:14;;;;;;;;;;;;;;;30.97;nan;100389.53;5073876;28;921;-42
2022/08/13 13:53:42;;;;;;;;;;;;;;;31.45;nan;100396.47;5073941;28;1370;-44
2022/08/13 13:56:28;;;;;;;;;;;;;;;30.97;nan;100390.38;5074071;28;1444;-44
2022/08/13 13:58:56;;;;;;;;;;;;;;;31.13;nan;100387.56;5073769;28;1362;-42
2022/08/13 14:01:25;;;;;;;;;;;;;;;30.67;nan;100386.56;5073396;28;1973;-41